createdAt,value
2019-05-17T00:01:53.249Z,32.13
2019-05-17T00:04:30.425Z,32.50
2019-05-17T00:07:07.593Z,33.27
2019-05-17T00:09:44.743Z,31.73
2019-05-17T00:12:21.815Z,33.60
2019-05-17T00:14:58.962Z,35.43
2019-05-17T00:17:37.708Z,31.13
2019-05-17T00:20:17.066Z,33.40
2019-05-17T00:22:53.538Z,31.73
2019-05-17T00:25:30.707Z,31.73
2019-05-17T00:28:07.815Z,30.80
2019-05-17T00:30:46.501Z,27.60
2019-05-17T00:33:23.655Z,28.67
2019-05-17T00:36:00.834Z,28.03
2019-05-17T00:38:47.557Z,30.30
2019-05-17T00:41:17.629Z,27.40
2019-05-17T00:43:56.831Z,26.07
2019-05-17T00:46:33.600Z,26.13
2019-05-17T00:49:10.751Z,26.53
2019-05-17T00:51:47.842Z,27.97
2019-05-17T00:54:26.955Z,27.83
2019-05-17T00:57:03.734Z,26.10
2019-05-17T00:59:40.864Z,26.43
2019-05-17T01:02:17.981Z,25.73
2019-05-17T01:04:56.868Z,25.73
2019-05-17T01:07:33.973Z,26.53
2019-05-17T01:10:11.103Z,24.67
2019-05-17T01:12:48.272Z,26.10
2019-05-17T01:15:27.262Z,24.43
2019-05-17T01:18:04.088Z,25.73
2019-05-17T01:20:41.205Z,26.87
2019-05-17T01:23:18.337Z,25.30
2019-05-17T01:25:56.673Z,24.90
2019-05-17T01:28:36.243Z,24.70
2019-05-17T01:31:13.356Z,24.53
2019-05-17T01:33:50.425Z,25.27
2019-05-17T01:36:27.803Z,25.20
2019-05-17T01:39:17.084Z,25.47
2019-05-17T01:41:44.158Z,24.03
2019-05-17T01:44:21.302Z,25.87
2019-05-17T01:46:58.587Z,25.10
2019-05-17T01:49:36.308Z,26.67
2019-05-17T01:52:13.507Z,25.17
2019-05-17T01:54:50.667Z,23.70
2019-05-17T01:57:27.878Z,24.90
2019-05-17T02:00:10.390Z,26.73
2019-05-17T02:02:51.802Z,25.03
2019-05-17T02:05:28.951Z,27.17
2019-05-17T02:08:06.896Z,31.53
2019-05-17T02:10:44.127Z,35.37
2019-05-17T02:13:21.699Z,34.00
2019-05-17T02:15:58.866Z,35.70
2019-05-17T02:18:37.205Z,39.83
2019-05-17T02:21:16.872Z,37.20
2019-05-17T02:23:53.580Z,30.23
2019-05-17T02:26:31.187Z,26.13
2019-05-17T02:29:08.506Z,26.63
2019-05-17T02:31:45.843Z,27.90
2019-05-17T02:34:23.306Z,32.13
2019-05-17T02:37:02.958Z,30.60
2019-05-17T02:39:53.806Z,29.10
2019-05-17T02:42:17.970Z,27.40
2019-05-17T02:44:55.091Z,27.37
2019-05-17T02:47:33.700Z,27.93
2019-05-17T02:50:12.836Z,26.77
2019-05-17T02:52:52.700Z,27.33
2019-05-17T02:55:28.780Z,26.27
2019-05-17T02:58:06.141Z,26.23
2019-05-17T03:00:44.329Z,29.07
2019-05-17T03:03:23.681Z,30.13
2019-05-17T03:06:02.986Z,27.23
2019-05-17T03:08:42.749Z,26.53
2019-05-17T03:11:18.576Z,26.80
2019-05-17T03:13:56.103Z,26.93
2019-05-17T03:16:33.924Z,27.70
2019-05-17T03:19:13.049Z,28.03
2019-05-17T03:21:52.898Z,26.67
2019-05-17T03:24:28.762Z,26.67
2019-05-17T03:27:05.851Z,26.97
2019-05-17T03:29:42.999Z,27.40
2019-05-17T03:32:25.897Z,27.00
2019-05-17T03:34:58.895Z,28.83
2019-05-17T03:37:37.974Z,28.40
2019-05-17T03:40:35.116Z,27.30
2019-05-17T03:42:54.010Z,30.93
2019-05-17T03:45:33.952Z,34.67
2019-05-17T03:48:12.715Z,31.77
2019-05-17T03:50:48.782Z,31.07
2019-05-17T03:53:25.852Z,32.67
2019-05-17T03:56:03.280Z,31.60
2019-05-17T03:58:43.052Z,31.27
2019-05-17T04:01:19.115Z,26.50
2019-05-17T04:03:56.283Z,28.50
2019-05-17T04:06:33.451Z,28.17
2019-05-17T04:09:13.455Z,28.17
2019-05-17T04:11:49.594Z,28.63
2019-05-17T04:14:26.677Z,30.13
2019-05-17T04:17:03.887Z,28.83
2019-05-17T04:19:42.561Z,31.47
2019-05-17T04:22:19.855Z,32.87
2019-05-17T04:24:56.993Z,32.30
2019-05-17T04:27:34.257Z,32.43
2019-05-17T04:30:12.593Z,31.07
2019-05-17T04:32:52.744Z,30.93
2019-05-17T04:35:32.793Z,31.57
2019-05-17T04:38:08.816Z,29.30
2019-05-17T04:40:45.988Z,29.40
2019-05-17T04:43:23.391Z,29.43
2019-05-17T04:46:02.831Z,31.40
2019-05-17T04:48:39.559Z,30.13
2019-05-17T04:51:17.221Z,32.80
2019-05-17T04:53:57.777Z,32.47
2019-05-17T04:56:36.677Z,32.53
2019-05-17T04:59:14.217Z,32.27
2019-05-17T05:01:53.661Z,33.40
2019-05-17T05:04:33.108Z,33.63
2019-05-17T05:07:09.039Z,33.40
2019-05-17T05:09:46.270Z,33.53
2019-05-17T05:12:23.339Z,34.23
2019-05-17T05:15:03.251Z,32.20
2019-05-17T05:17:42.215Z,32.10
2019-05-17T05:20:18.014Z,32.07
2019-05-17T05:22:55.181Z,31.73
2019-05-17T05:25:32.441Z,31.17
2019-05-17T05:28:11.393Z,31.17
2019-05-17T05:30:48.309Z,33.73
2019-05-17T05:33:25.419Z,33.23
2019-05-17T05:36:02.624Z,32.23
2019-05-17T05:38:42.068Z,33.33
2019-05-17T05:41:18.604Z,31.73
2019-05-17T05:43:55.727Z,32.30
2019-05-17T05:46:32.910Z,36.57
2019-05-17T05:49:12.203Z,31.37
2019-05-17T05:51:48.890Z,27.67
2019-05-17T05:54:26.047Z,26.63
2019-05-17T05:57:03.157Z,29.20
2019-05-17T05:59:42.346Z,29.40
2019-05-17T06:02:21.675Z,29.97
2019-05-17T06:04:57.821Z,30.70
2019-05-17T06:07:34.950Z,30.23
2019-05-17T06:10:13.077Z,36.20
2019-05-17T06:12:51.771Z,32.57
2019-05-17T06:15:29.048Z,30.03
2019-05-17T06:18:06.191Z,29.80
2019-05-17T06:20:43.298Z,29.70
2019-05-17T06:23:20.412Z,30.97
2019-05-17T06:25:57.533Z,29.63
2019-05-17T06:28:34.698Z,31.43
2019-05-17T06:31:11.802Z,31.60
2019-05-17T06:33:48.945Z,32.13
2019-05-17T06:36:26.111Z,29.77
2019-05-17T06:39:04.880Z,29.83
2019-05-17T06:41:42.321Z,31.73
2019-05-17T06:44:21.610Z,31.90
2019-05-17T06:47:02.427Z,28.80
2019-05-17T06:49:37.274Z,29.97
2019-05-17T06:52:14.404Z,30.20
2019-05-17T06:54:52.475Z,29.90
2019-05-17T06:57:43.666Z,29.77
2019-05-17T07:00:23.900Z,29.80
2019-05-17T07:03:00.674Z,30.93
2019-05-17T07:05:40.387Z,29.60
2019-05-17T07:08:20.040Z,30.67
2019-05-17T07:10:56.557Z,29.33
2019-05-17T07:13:33.714Z,30.47
2019-05-17T07:16:10.847Z,29.13
2019-05-17T07:18:49.420Z,29.80
2019-05-17T07:21:26.694Z,28.07
2019-05-17T07:24:03.789Z,27.60
2019-05-17T07:26:40.942Z,26.37
2019-05-17T07:29:19.383Z,26.13
2019-05-17T07:31:56.541Z,26.57
2019-05-17T07:34:33.701Z,26.13
2019-05-17T07:37:10.749Z,24.10
2019-05-17T07:40:00.431Z,22.63
2019-05-17T07:42:26.634Z,23.00
2019-05-17T07:45:06.094Z,22.37
2019-05-17T07:47:43.197Z,23.93
2019-05-17T07:50:20.369Z,27.63
2019-05-17T07:52:57.567Z,24.70
2019-05-17T07:55:34.687Z,24.17
2019-05-17T07:58:11.796Z,26.43
2019-05-17T08:00:51.149Z,24.87
2019-05-17T08:03:29.738Z,26.60
2019-05-17T08:06:06.512Z,25.93
2019-05-17T08:08:43.713Z,24.83
2019-05-17T08:11:20.827Z,23.87
2019-05-17T08:13:59.754Z,20.10
2019-05-17T08:16:36.702Z,20.13
2019-05-17T08:19:13.795Z,18.97
2019-05-17T08:21:51.091Z,17.20
2019-05-17T08:24:30.317Z,17.87
2019-05-17T08:27:10.497Z,18.92
2019-05-17T08:29:49.732Z,20.23
2019-05-17T08:32:26.446Z,20.60
2019-05-17T08:35:04.847Z,18.40
2019-05-17T08:37:42.697Z,18.35
2019-05-17T08:40:20.189Z,17.10
2019-05-17T08:42:57.415Z,19.10
2019-05-17T08:45:34.495Z,20.27
2019-05-17T08:48:11.739Z,19.23
2019-05-17T08:50:49.582Z,18.12
2019-05-17T08:53:26.906Z,17.55
2019-05-17T08:56:03.932Z,15.83
2019-05-17T08:58:41.295Z,16.82
2019-05-17T09:01:19.568Z,15.80
2019-05-17T09:03:56.855Z,14.95
2019-05-17T09:06:33.992Z,15.75
2019-05-17T09:09:11.730Z,15.55
2019-05-17T09:11:50.132Z,14.90
2019-05-17T09:14:29.341Z,13.53
2019-05-17T09:17:06.095Z,14.70
2019-05-17T09:19:43.165Z,13.50
2019-05-17T09:22:20.860Z,12.82
2019-05-17T09:24:59.575Z,13.08
2019-05-17T09:27:39.467Z,13.48
2019-05-17T09:30:16.270Z,13.32
2019-05-17T09:32:53.990Z,14.05
2019-05-17T09:35:31.263Z,14.03
2019-05-17T09:38:10.529Z,17.32
2019-05-17T09:40:50.496Z,16.95
2019-05-17T09:43:29.551Z,13.58
2019-05-17T09:46:10.393Z,11.68
2019-05-17T09:48:47.129Z,11.88
2019-05-17T09:51:24.996Z,13.03
2019-05-17T09:54:02.618Z,14.83
2019-05-17T09:56:42.021Z,15.18
2019-05-17T09:59:20.997Z,14.98
2019-05-17T10:02:00.124Z,15.65
2019-05-17T10:04:39.481Z,18.55
2019-05-17T10:07:20.776Z,17.62
2019-05-17T10:09:59.733Z,18.27
2019-05-17T10:12:37.401Z,15.25
2019-05-17T10:15:15.039Z,18.00
2019-05-17T10:17:52.784Z,16.15
2019-05-17T10:20:30.442Z,16.87
2019-05-17T10:23:10.439Z,16.87
2019-05-17T10:25:47.517Z,16.95
2019-05-17T10:28:25.274Z,17.65
2019-05-17T10:31:02.841Z,17.67
2019-05-17T10:33:40.603Z,16.65
2019-05-17T10:36:20.274Z,18.60
2019-05-17T10:38:59.255Z,22.13
2019-05-17T10:41:36.955Z,18.52
2019-05-17T10:44:14.716Z,18.45
2019-05-17T10:46:53.510Z,17.65
2019-05-17T10:49:33.447Z,16.27
2019-05-17T10:52:11.122Z,18.92
2019-05-17T10:54:49.143Z,17.30
2019-05-17T10:57:26.875Z,15.75
2019-05-17T11:00:06.447Z,16.73
2019-05-17T11:02:45.446Z,17.48
2019-05-17T11:05:23.382Z,17.37
2019-05-17T11:08:01.209Z,20.05
2019-05-17T11:10:39.319Z,17.92
2019-05-17T11:13:17.086Z,19.95
2019-05-17T11:15:54.817Z,18.10
2019-05-17T11:18:32.575Z,16.97
2019-05-17T11:21:10.304Z,17.50
2019-05-17T11:23:47.964Z,18.40
2019-05-17T11:26:25.699Z,19.73
2019-05-17T11:29:05.894Z,21.48
2019-05-17T11:31:43.696Z,18.52
2019-05-17T11:34:25.397Z,18.42
2019-05-17T11:37:00.734Z,18.25
2019-05-17T11:39:38.464Z,16.48
2019-05-17T11:42:19.080Z,16.23
2019-05-17T11:44:58.135Z,16.70
2019-05-17T11:47:36.750Z,17.02
2019-05-17T11:50:15.371Z,15.75
2019-05-17T11:52:53.050Z,14.98
2019-05-17T11:55:31.244Z,15.28
2019-05-17T11:58:09.238Z,16.02
2019-05-17T12:00:46.999Z,15.43
2019-05-17T12:03:26.021Z,15.38
2019-05-17T12:06:04.055Z,15.18
2019-05-17T12:08:41.714Z,15.75
2019-05-17T12:11:19.606Z,16.93
2019-05-17T12:13:57.285Z,15.18
2019-05-17T12:16:35.001Z,16.85
2019-05-17T12:19:12.699Z,16.07
2019-05-17T12:21:50.460Z,16.90
2019-05-17T12:24:28.130Z,16.37
2019-05-17T12:27:05.868Z,14.80
2019-05-17T12:29:43.619Z,14.63
2019-05-17T12:32:21.496Z,14.53
2019-05-17T12:34:59.299Z,15.40
2019-05-17T12:37:37.137Z,18.25
2019-05-17T12:40:15.375Z,15.68
2019-05-17T12:42:54.730Z,16.27
2019-05-17T12:48:31.638Z,14.93
2019-05-17T12:51:09.346Z,15.32
2019-05-17T12:53:47.039Z,17.40
2019-05-17T12:56:24.752Z,17.62
2019-05-17T12:59:02.479Z,16.00
2019-05-17T13:01:40.220Z,15.30
2019-05-17T13:04:20.079Z,14.75
2019-05-17T13:06:57.894Z,15.45
2019-05-17T13:09:35.609Z,17.65
2019-05-17T13:12:13.547Z,18.07
2019-05-17T13:14:52.209Z,17.20
2019-05-17T13:17:31.583Z,15.10
2019-05-17T13:20:10.425Z,16.80
2019-05-17T13:22:48.837Z,17.80
2019-05-17T13:25:27.593Z,15.60
2019-05-17T13:28:08.655Z,14.70
2019-05-17T13:30:46.394Z,16.60
2019-05-17T13:33:24.106Z,16.87
2019-05-17T13:36:01.858Z,17.60
2019-05-17T13:38:39.630Z,16.40
2019-05-17T13:41:17.265Z,18.23
2019-05-17T13:43:55.162Z,17.40
2019-05-17T13:46:33.743Z,16.52
2019-05-17T13:49:11.572Z,17.07
2019-05-17T13:51:49.529Z,17.55
2019-05-17T13:54:27.288Z,18.42
2019-05-17T13:57:05.081Z,17.77
2019-05-17T13:59:42.847Z,18.02
2019-05-17T14:02:20.578Z,17.25
2019-05-17T14:04:58.401Z,17.25
2019-05-17T14:07:36.109Z,17.12
2019-05-17T14:10:26.201Z,16.35
2019-05-17T14:12:53.170Z,15.80
2019-05-17T14:15:30.871Z,16.12
2019-05-17T14:18:08.689Z,16.60
2019-05-17T14:20:46.318Z,17.32
2019-05-17T14:23:24.042Z,17.20
2019-05-17T14:26:01.707Z,16.23
2019-05-17T14:28:41.313Z,16.85
2019-05-17T14:31:19.777Z,16.67
2019-05-17T14:33:57.638Z,15.93
2019-05-17T14:36:36.680Z,17.60
2019-05-17T14:39:14.392Z,16.50
2019-05-17T14:41:52.402Z,14.83
2019-05-17T14:44:30.142Z,16.32
2019-05-17T14:47:09.603Z,15.35
2019-05-17T14:49:47.292Z,15.78
2019-05-17T14:52:25.204Z,18.05
2019-05-17T14:55:02.955Z,17.32
2019-05-17T14:57:42.934Z,16.48
2019-05-17T15:00:20.074Z,14.78
2019-05-17T15:02:57.837Z,14.83
2019-05-17T15:05:35.570Z,15.63
2019-05-17T15:08:13.250Z,13.83
2019-05-17T15:10:51.063Z,15.35
2019-05-17T15:13:28.802Z,15.08
2019-05-17T15:16:06.659Z,15.58
2019-05-17T15:18:44.421Z,15.58
2019-05-17T15:21:22.119Z,15.65
2019-05-17T15:24:00.998Z,16.00
2019-05-17T15:26:38.756Z,15.95
2019-05-17T15:29:16.414Z,15.48
2019-05-17T15:31:54.157Z,15.83
2019-05-17T15:34:31.875Z,16.87
2019-05-17T15:37:09.627Z,16.52
2019-05-17T15:39:47.284Z,15.98
2019-05-17T15:42:25.021Z,15.63
2019-05-17T15:45:02.938Z,16.02
2019-05-17T15:47:40.747Z,15.63
2019-05-17T15:50:20.495Z,15.08
2019-05-17T15:52:58.270Z,15.98
2019-05-17T15:55:36.020Z,15.50
2019-05-17T15:58:13.717Z,15.30
2019-05-17T16:00:51.609Z,15.65
2019-05-17T16:03:30.614Z,14.87
2019-05-17T16:06:08.356Z,15.53
2019-05-17T16:08:46.111Z,14.38
2019-05-17T16:11:23.869Z,14.87
2019-05-17T16:14:01.607Z,13.18
2019-05-17T16:16:39.325Z,13.32
2019-05-17T16:19:17.032Z,14.10
2019-05-17T16:21:55.743Z,14.78
2019-05-17T16:24:33.661Z,13.98
2019-05-17T16:27:11.421Z,12.75
2019-05-17T16:29:49.126Z,13.08
2019-05-17T16:32:26.832Z,12.13
2019-05-17T16:35:05.947Z,12.40
2019-05-17T16:37:43.857Z,12.82
2019-05-17T16:40:23.058Z,11.83
2019-05-17T16:43:15.775Z,11.28
2019-05-17T16:45:43.060Z,12.35
2019-05-17T16:48:20.842Z,12.00
2019-05-17T16:50:58.539Z,12.85
2019-05-17T16:53:36.341Z,12.88
2019-05-17T16:56:14.578Z,12.53
2019-05-17T16:58:52.316Z,11.55
2019-05-17T17:01:29.983Z,10.88
2019-05-17T17:04:07.730Z,11.63
2019-05-17T17:06:45.423Z,12.50
2019-05-17T17:09:23.234Z,12.82
2019-05-17T17:12:01.316Z,12.25
2019-05-17T17:14:39.163Z,12.88
2019-05-17T17:17:16.946Z,12.53
2019-05-17T17:19:54.712Z,12.25
2019-05-17T17:22:32.451Z,11.75
2019-05-17T17:25:10.155Z,12.00
2019-05-17T17:27:47.991Z,12.40
2019-05-17T17:30:26.945Z,12.30
2019-05-17T17:33:04.673Z,12.18
2019-05-17T17:35:42.394Z,12.35
2019-05-17T17:38:20.446Z,12.85
2019-05-17T17:40:58.194Z,13.32
2019-05-17T17:43:35.891Z,13.55
2019-05-17T17:46:13.638Z,12.55
2019-05-17T17:48:51.979Z,14.03
2019-05-17T17:51:29.724Z,13.80
2019-05-17T17:54:07.480Z,14.30
2019-05-17T17:56:46.698Z,15.23
2019-05-17T17:59:24.439Z,14.75
2019-05-17T18:02:02.249Z,14.78
2019-05-17T18:04:39.924Z,15.98
2019-05-17T18:07:17.759Z,15.23
2019-05-17T18:10:13.104Z,15.60
2019-05-17T18:13:02.874Z,14.93
2019-05-17T18:15:44.664Z,14.47
2019-05-17T18:18:22.395Z,15.60
2019-05-17T18:21:00.116Z,15.38
2019-05-17T18:23:37.905Z,15.58
2019-05-17T18:26:15.598Z,17.07
2019-05-17T18:28:53.340Z,15.85
2019-05-17T18:31:32.057Z,16.93
2019-05-17T18:34:16.979Z,17.23
2019-05-17T18:36:56.964Z,17.25
2019-05-17T18:39:34.680Z,15.90
2019-05-17T18:42:11.770Z,15.53
2019-05-17T18:44:49.497Z,16.27
2019-05-17T18:47:27.279Z,14.90
2019-05-17T18:50:05.490Z,16.02
2019-05-17T18:52:43.261Z,16.52
2019-05-17T18:55:20.368Z,16.65
2019-05-17T18:57:57.566Z,16.25
2019-05-17T19:00:34.771Z,17.70
2019-05-17T19:03:11.921Z,17.57
2019-05-17T19:05:49.104Z,18.15
2019-05-17T19:08:26.808Z,18.05
2019-05-17T19:11:03.935Z,18.37
2019-05-17T19:13:41.059Z,18.23
2019-05-17T19:16:18.800Z,18.07
2019-05-17T19:18:56.456Z,18.55
2019-05-17T19:21:41.096Z,19.80
2019-05-17T19:24:18.853Z,19.98
2019-05-17T19:26:56.043Z,20.20
2019-05-17T19:29:33.289Z,21.68
2019-05-17T19:32:13.981Z,22.58
2019-05-17T19:34:51.313Z,20.73
2019-05-17T19:37:28.644Z,21.43
2019-05-17T19:40:08.819Z,21.30
2019-05-17T19:42:46.031Z,19.17
2019-05-17T19:45:23.717Z,20.55
2019-05-17T19:48:03.201Z,17.87
2019-05-17T19:50:40.376Z,19.03
2019-05-17T19:53:21.162Z,17.00
2019-05-17T19:55:58.274Z,17.53
2019-05-17T19:58:35.489Z,18.57
2019-05-17T20:01:13.932Z,18.07
2019-05-17T20:03:54.491Z,17.90
2019-05-17T20:06:31.651Z,19.63
2019-05-17T20:09:09.811Z,20.53
2019-05-17T20:11:47.339Z,20.73
2019-05-17T20:14:24.550Z,22.47
2019-05-17T20:17:06.456Z,22.67
2019-05-17T20:19:41.991Z,23.67
2019-05-17T20:22:19.165Z,23.63
2019-05-17T20:24:57.392Z,22.77
2019-05-17T20:27:34.558Z,22.60
2019-05-17T20:30:11.698Z,23.03
2019-05-17T20:32:48.827Z,27.73
2019-05-17T20:35:25.974Z,26.93
2019-05-17T20:38:03.130Z,28.10
2019-05-17T20:40:40.265Z,25.07
2019-05-17T20:43:18.316Z,25.50
2019-05-17T20:45:55.521Z,26.53
2019-05-17T20:48:32.691Z,27.07
2019-05-17T20:51:09.841Z,24.97
2019-05-17T20:53:46.996Z,26.33
2019-05-17T20:56:32.665Z,24.33
2019-05-17T20:59:03.046Z,21.53
2019-05-17T21:01:40.179Z,21.63
2019-05-17T21:04:17.335Z,21.80
2019-05-17T21:06:54.481Z,22.07
2019-05-17T21:09:31.667Z,21.50
2019-05-17T21:12:08.898Z,22.47
2019-05-17T21:14:51.764Z,20.77
2019-05-17T21:17:28.897Z,21.03
2019-05-17T21:20:07.657Z,22.03
2019-05-17T21:22:44.974Z,20.73
2019-05-17T21:25:22.111Z,19.83
2019-05-17T21:27:59.245Z,20.03
2019-05-17T21:30:36.385Z,21.07
2019-05-17T21:33:13.506Z,21.37
2019-05-17T21:35:50.617Z,20.93
2019-05-17T21:38:27.738Z,20.57
2019-05-17T21:41:04.907Z,23.17
2019-05-17T21:43:42.030Z,22.97
2019-05-17T21:46:19.162Z,22.67
2019-05-17T21:48:57.923Z,23.93
2019-05-17T21:51:35.051Z,23.33
2019-05-17T21:54:12.167Z,24.67
2019-05-17T21:56:49.336Z,22.80
2019-05-17T21:59:26.500Z,25.80
2019-05-17T22:02:03.899Z,24.87
2019-05-17T22:04:41.388Z,24.43
2019-05-17T22:07:18.510Z,23.90
2019-05-17T22:09:55.604Z,26.80
2019-05-17T22:12:32.743Z,26.33
2019-05-17T22:15:09.751Z,24.07
2019-05-17T22:17:46.933Z,24.70
2019-05-17T22:20:24.019Z,25.33
2019-05-17T22:23:01.165Z,27.27
2019-05-17T22:25:38.267Z,25.67
2019-05-17T22:28:16.516Z,24.07
2019-05-17T22:31:02.443Z,24.70
2019-05-17T22:33:39.618Z,24.60
2019-05-17T22:36:16.706Z,26.63
2019-05-17T22:38:53.853Z,27.23
2019-05-17T22:41:30.976Z,26.00
2019-05-17T22:44:08.131Z,25.23
2019-05-17T22:46:45.217Z,26.77
2019-05-17T22:49:22.761Z,26.70
2019-05-17T22:52:06.294Z,27.23
2019-05-17T22:54:43.924Z,28.47
2019-05-17T22:57:21.406Z,25.03
2019-05-17T23:00:01.323Z,25.77
2019-05-17T23:02:38.972Z,25.13
2019-05-17T23:05:21.604Z,26.37
2019-05-17T23:07:56.952Z,24.50
2019-05-17T23:10:35.253Z,24.53
2019-05-17T23:13:12.671Z,23.30
2019-05-17T23:16:00.455Z,23.70
2019-05-17T23:18:37.655Z,22.63
2019-05-17T23:21:14.906Z,22.03
2019-05-17T23:23:52.122Z,23.70
2019-05-17T23:26:29.439Z,23.00
2019-05-17T23:29:06.871Z,21.97
2019-05-17T23:31:44.287Z,22.63
2019-05-17T23:34:21.686Z,20.80
2019-05-17T23:36:59.835Z,23.33
2019-05-17T23:39:37.270Z,23.50
2019-05-17T23:42:14.918Z,23.97
2019-05-17T23:44:52.248Z,23.23
2019-05-17T23:47:29.597Z,24.40
2019-05-17T23:50:07.605Z,25.30
2019-05-17T23:52:44.745Z,24.67
2019-05-17T23:55:21.865Z,26.13
2019-05-17T23:57:59.030Z,26.00
